Check out our new PWSWeather beta!
PWSweather.com
Personal Weather Stations
Station Observations
KWALONGB2
196th Pl. Near Pacific Hwy., Long Beach, WA 98631

196th Pl. Near Pacific Hwy.Long Beach, WA 98631

Lat: 46.444, Lon: -124.054

Elevation: 40

Station Type: Davis Vantage Pro2

https://www.642weather.com/weather/

Latest ConditionsUpdated 10:00:00 AM PST Monday, Feb 24, 2020
Currently Today's Max Today's Min Today's Average
Temperature 47.2°F8.4°C 47.2°F8.4°C 37.5°F3.1°C 42.3°F5.7°C
Dew Point 41.0°F5.0°C 42.1°F5.6°C 33.9°F1.1°C 37.0°F2.8°C
Winds Calm Calm Calm -Calm - - Calm Calm
Wind Gusts -- 2.3 mph3.7 kmh - -
Humidity 79% 93% 71% 82%
Pressure 30.58 in1035.6 mb 30.58 in1035.6 mb 30.48 in1032.2 mb -
Precipitation - 0.01 in0.3 mm - -
Hour Temp Dew Point Humidity Winds Wind Gusts Pressure Precip Precip Rate Daily Precip Total
10:00 AM 47.2°F8.4°C 41.0°F5.0°C 79% Calm Calm -- 30.58 in1035.6 mb - 0.00 in0.0 mm 0.01 in0.3 mm
09:50 AM 47.1°F8.4°C 41.6°F5.3°C 81% Calm Calm -- 30.58 in1035.6 mb - 0.00 in0.0 mm 0.01 in0.3 mm
09:40 AM 46.5°F8.1°C 41.9°F5.5°C 84% Calm Calm -- 30.57 in1035.2 mb - 0.00 in0.0 mm 0.01 in0.3 mm
09:30 AM 45.7°F7.6°C 42.1°F5.6°C 87% Calm Calm -- 30.58 in1035.6 mb - 0.00 in0.0 mm 0.01 in0.3 mm
09:20 AM 44.2°F6.8°C 41.1°F5.1°C 89% Calm Calm -- 30.58 in1035.6 mb - 0.00 in0.0 mm 0.01 in0.3 mm
09:10 AM 43.3°F6.3°C 40.3°F4.6°C 89% Calm Calm -- 30.58 in1035.6 mb - 0.00 in0.0 mm 0.01 in0.3 mm
09:00 AM 42.6°F5.9°C 40.2°F4.6°C 91% Calm Calm -- 30.58 in1035.6 mb - 0.00 in0.0 mm 0.01 in0.3 mm
08:50 AM 41.5°F5.3°C 39.4°F4.1°C 92% Calm Calm -- 30.57 in1035.2 mb - 0.00 in0.0 mm 0.01 in0.3 mm
08:40 AM 40.7°F4.8°C 38.5°F3.6°C 92% Calm Calm -- 30.57 in1035.2 mb - 0.00 in0.0 mm 0.01 in0.3 mm
08:30 AM 39.4°F4.1°C 37.5°F3.1°C 93% Calm Calm -- 30.57 in1035.2 mb - 0.00 in0.0 mm 0.01 in0.3 mm
08:20 AM 38.0°F3.3°C 35.3°F1.8°C 90% Calm Calm -- 30.57 in1035.2 mb - 0.00 in0.0 mm 0.01 in0.3 mm
08:10 AM 37.6°F3.1°C 34.4°F1.3°C 88% Calm Calm -- 30.57 in1035.2 mb - 0.01 in0.3 mm 0.01 in0.3 mm
08:00 AM 37.5°F3.1°C 34.0°F1.1°C 87% Calm Calm -- 30.56 in1034.9 mb - 0.01 in0.3 mm 0.01 in0.3 mm
07:50 AM 37.7°F3.2°C 33.9°F1.1°C 86% Calm Calm -- 30.56 in1034.9 mb - 0.01 in0.3 mm 0.01 in0.3 mm
07:40 AM 38.0°F3.3°C 34.2°F1.2°C 86% Calm Calm -- 30.56 in1034.9 mb - 0.01 in0.3 mm 0.01 in0.3 mm
07:30 AM 38.3°F3.5°C 34.2°F1.2°C 85% Calm Calm -- 30.56 in1034.9 mb - 0.01 in0.3 mm 0.01 in0.3 mm
07:20 AM 38.7°F3.7°C 34.6°F1.4°C 85% Calm Calm -- 30.55 in1034.5 mb - 0.01 in0.3 mm 0.01 in0.3 mm
07:10 AM 39.2°F4.0°C 34.8°F1.6°C 84% Calm Calm -- 30.55 in1034.5 mb - 0.00 in0.0 mm 0.00 in0.0 mm
07:00 AM 39.8°F4.3°C 34.8°F1.6°C 82% Calm Calm -- 30.55 in1034.5 mb - 0.00 in0.0 mm 0.00 in0.0 mm
06:50 AM 40.4°F4.7°C 35.4°F1.9°C 82% Calm Calm -- 30.55 in1034.5 mb - 0.00 in0.0 mm 0.00 in0.0 mm
06:40 AM 40.9°F4.9°C 35.8°F2.1°C 82% Calm Calm -- 30.55 in1034.5 mb - 0.00 in0.0 mm 0.00 in0.0 mm
06:30 AM 41.3°F5.2°C 35.9°F2.2°C 81% Calm Calm -- 30.55 in1034.5 mb - 0.00 in0.0 mm 0.00 in0.0 mm
06:20 AM 41.8°F5.4°C 36.7°F2.6°C 82% Calm Calm -- 30.55 in1034.5 mb - 0.00 in0.0 mm 0.00 in0.0 mm
06:10 AM 42.1°F5.6°C 37.0°F2.8°C 82% Calm Calm -- 30.55 in1034.5 mb - 0.00 in0.0 mm 0.00 in0.0 mm
06:00 AM 42.1°F5.6°C 36.4°F2.4°C 80% Calm Calm -- 30.54 in1034.2 mb - 0.00 in0.0 mm 0.00 in0.0 mm
05:50 AM 42.5°F5.8°C 36.7°F2.6°C 80% Calm Calm -- 30.54 in1034.2 mb - 0.00 in0.0 mm 0.00 in0.0 mm
05:40 AM 42.7°F5.9°C 37.0°F2.8°C 80% Calm Calm -- 30.54 in1034.2 mb - 0.00 in0.0 mm 0.00 in0.0 mm
05:30 AM 42.9°F6.1°C 37.2°F2.9°C 80% Calm Calm -- 30.54 in1034.2 mb - 0.00 in0.0 mm 0.00 in0.0 mm
05:20 AM 42.8°F6.0°C 37.4°F3.0°C 81% Calm Calm -- 30.54 in1034.2 mb - 0.00 in0.0 mm 0.00 in0.0 mm
05:10 AM 42.6°F5.9°C 37.5°F3.1°C 82% Calm Calm -- 30.54 in1034.2 mb - 0.00 in0.0 mm 0.00 in0.0 mm
05:00 AM 42.4°F5.8°C 37.9°F3.3°C 84% Calm Calm -- 30.54 in1034.2 mb - 0.00 in0.0 mm 0.00 in0.0 mm
04:50 AM 42.1°F5.6°C 37.6°F3.1°C 84% Calm Calm -- 30.54 in1034.2 mb - 0.00 in0.0 mm 0.00 in0.0 mm
04:40 AM 41.7°F5.4°C 36.9°F2.7°C 83% Calm Calm -- 30.53 in1033.9 mb - 0.00 in0.0 mm 0.00 in0.0 mm
04:30 AM 41.6°F5.3°C 36.9°F2.7°C 83% Calm Calm -- 30.53 in1033.9 mb - 0.00 in0.0 mm 0.00 in0.0 mm
04:20 AM 41.8°F5.4°C 37.3°F2.9°C 84% Calm Calm -- 30.53 in1033.9 mb - 0.00 in0.0 mm 0.00 in0.0 mm
04:10 AM 41.9°F5.5°C 37.1°F2.8°C 83% Calm Calm -- 30.53 in1033.9 mb - 0.00 in0.0 mm 0.00 in0.0 mm
04:00 AM 41.9°F5.5°C 37.1°F2.8°C 83% Calm Calm -- 30.53 in1033.9 mb - 0.00 in0.0 mm 0.00 in0.0 mm
03:50 AM 42.0°F5.6°C 37.0°F2.8°C 82% Calm Calm -- 30.53 in1033.9 mb - 0.00 in0.0 mm 0.00 in0.0 mm
03:40 AM 42.0°F5.6°C 36.9°F2.7°C 82% Calm Calm -- 30.53 in1033.9 mb - 0.00 in0.0 mm 0.00 in0.0 mm
03:30 AM 42.0°F5.6°C 36.9°F2.7°C 82% Calm Calm -- 30.53 in1033.9 mb - 0.00 in0.0 mm 0.00 in0.0 mm
03:20 AM 42.0°F5.6°C 36.6°F2.6°C 81% Calm Calm -- 30.53 in1033.9 mb - 0.00 in0.0 mm 0.00 in0.0 mm
03:10 AM 42.3°F5.7°C 37.2°F2.9°C 82% Calm Calm -- 30.53 in1033.9 mb - 0.00 in0.0 mm 0.00 in0.0 mm
03:00 AM 42.5°F5.8°C 37.4°F3.0°C 82% Calm Calm -- 30.53 in1033.9 mb - 0.00 in0.0 mm 0.00 in0.0 mm
02:50 AM 42.7°F5.9°C 37.9°F3.3°C 83% Calm Calm 1.2 mph1.9 kmh 30.53 in1033.9 mb - 0.00 in0.0 mm 0.00 in0.0 mm
02:40 AM 42.9°F6.1°C 38.1°F3.4°C 83% Calm Calm 1.2 mph1.9 kmh 30.53 in1033.9 mb - 0.00 in0.0 mm 0.00 in0.0 mm
02:30 AM 43.3°F6.3°C 38.1°F3.4°C 82% Calm Calm -- 30.53 in1033.9 mb - 0.00 in0.0 mm 0.00 in0.0 mm
02:20 AM 43.9°F6.6°C 38.1°F3.4°C 80% Calm Calm -- 30.53 in1033.9 mb - 0.00 in0.0 mm 0.00 in0.0 mm
02:10 AM 44.3°F6.8°C 37.5°F3.1°C 77% Calm Calm 2.3 mph3.7 kmh 30.52 in1033.5 mb - 0.00 in0.0 mm 0.00 in0.0 mm
02:00 AM 44.1°F6.7°C 37.3°F2.9°C 77% Calm Calm -- 30.51 in1033.2 mb - 0.00 in0.0 mm 0.00 in0.0 mm
01:50 AM 44.0°F6.7°C 36.9°F2.7°C 76% Calm Calm -- 30.51 in1033.2 mb - 0.00 in0.0 mm 0.00 in0.0 mm
01:40 AM 44.0°F6.7°C 36.6°F2.6°C 75% Calm Calm -- 30.50 in1032.8 mb - 0.00 in0.0 mm 0.00 in0.0 mm
01:30 AM 44.0°F6.7°C 36.2°F2.3°C 74% Calm Calm -- 30.50 in1032.8 mb - 0.00 in0.0 mm 0.00 in0.0 mm
01:20 AM 43.9°F6.6°C 35.8°F2.1°C 73% Calm Calm -- 30.49 in1032.5 mb - 0.00 in0.0 mm 0.00 in0.0 mm
01:10 AM 43.9°F6.6°C 35.8°F2.1°C 73% Calm Calm -- 30.49 in1032.5 mb - 0.00 in0.0 mm 0.00 in0.0 mm
01:00 AM 44.0°F6.7°C 35.5°F1.9°C 72% Calm Calm -- 30.49 in1032.5 mb - 0.00 in0.0 mm 0.00 in0.0 mm
12:50 AM 44.0°F6.7°C 35.2°F1.8°C 71% Calm Calm -- 30.49 in1032.5 mb - 0.00 in0.0 mm 0.00 in0.0 mm
12:40 AM 44.0°F6.7°C 35.6°F2.0°C 72% Calm Calm -- 30.48 in1032.2 mb - 0.00 in0.0 mm 0.00 in0.0 mm
12:30 AM 44.1°F6.7°C 36.0°F2.2°C 73% Calm Calm -- 30.48 in1032.2 mb - 0.00 in0.0 mm 0.00 in0.0 mm
12:20 AM 44.0°F6.7°C 35.9°F2.2°C 73% Calm Calm -- 30.48 in1032.2 mb - 0.00 in0.0 mm 0.00 in0.0 mm
12:10 AM 43.9°F6.6°C 36.5°F2.5°C 75% Calm Calm -- 30.48 in1032.2 mb - 0.00 in0.0 mm 0.00 in0.0 mm
12:00 AM 43.9°F6.6°C 36.1°F2.3°C 74% Calm Calm 1.2 mph1.9 kmh 30.48 in1032.2 mb - 0.00 in0.0 mm 0.00 in0.0 mm